sensor_id;sensor_type;location;lat;lon;timestamp;temperature;humidity
65836;SHT30;52595;51.608;7.216;2023-07-13T00:00:28;16.95;80.10
65836;SHT30;52595;51.608;7.216;2023-07-13T00:02:54;16.97;80.08
65836;SHT30;52595;51.608;7.216;2023-07-13T00:05:23;16.91;79.78
65836;SHT30;52595;51.608;7.216;2023-07-13T00:07:49;16.87;79.83
65836;SHT30;52595;51.608;7.216;2023-07-13T00:10:15;16.78;79.80
65836;SHT30;52595;51.608;7.216;2023-07-13T00:12:41;16.70;80.10
65836;SHT30;52595;51.608;7.216;2023-07-13T00:15:22;16.60;80.60
65836;SHT30;52595;51.608;7.216;2023-07-13T00:17:53;16.43;81.04
65836;SHT30;52595;51.608;7.216;2023-07-13T00:20:23;16.40;81.25
65836;SHT30;52595;51.608;7.216;2023-07-13T00:22:51;16.32;81.38
65836;SHT30;52595;51.608;7.216;2023-07-13T00:25:19;16.27;81.54
65836;SHT30;52595;51.608;7.216;2023-07-13T00:27:47;16.17;81.79
65836;SHT30;52595;51.608;7.216;2023-07-13T00:30:14;16.09;82.03
65836;SHT30;52595;51.608;7.216;2023-07-13T00:32:40;16.05;82.06
65836;SHT30;52595;51.608;7.216;2023-07-13T00:35:05;16.05;82.05
65836;SHT30;52595;51.608;7.216;2023-07-13T00:37:31;15.96;82.24
65836;SHT30;52595;51.608;7.216;2023-07-13T00:39:57;15.92;82.18
65836;SHT30;52595;51.608;7.216;2023-07-13T00:42:23;15.95;81.90
65836;SHT30;52595;51.608;7.216;2023-07-13T00:47:31;15.89;81.94
65836;SHT30;52595;51.608;7.216;2023-07-13T00:49:56;15.89;81.63
65836;SHT30;52595;51.608;7.216;2023-07-13T00:52:22;15.83;81.23
65836;SHT30;52595;51.608;7.216;2023-07-13T00:54:47;15.83;80.92
65836;SHT30;52595;51.608;7.216;2023-07-13T00:57:16;15.79;80.71
65836;SHT30;52595;51.608;7.216;2023-07-13T00:59:46;15.73;80.44
65836;SHT30;52595;51.608;7.216;2023-07-13T01:02:12;15.81;79.31
65836;SHT30;52595;51.608;7.216;2023-07-13T01:04:38;15.79;79.26
65836;SHT30;52595;51.608;7.216;2023-07-13T01:07:05;15.81;78.86
65836;SHT30;52595;51.608;7.216;2023-07-13T01:09:31;15.86;78.37
65836;SHT30;52595;51.608;7.216;2023-07-13T01:11:56;15.85;77.86
65836;SHT30;52595;51.608;7.216;2023-07-13T01:14:22;15.86;77.45
65836;SHT30;52595;51.608;7.216;2023-07-13T01:16:49;15.83;77.49
65836;SHT30;52595;51.608;7.216;2023-07-13T01:21:51;15.75;78.17
65836;SHT30;52595;51.608;7.216;2023-07-13T01:24:17;15.79;77.46
65836;SHT30;52595;51.608;7.216;2023-07-13T01:26:46;15.79;77.56
65836;SHT30;52595;51.608;7.216;2023-07-13T01:29:11;15.81;77.24
65836;SHT30;52595;51.608;7.216;2023-07-13T01:31:36;15.83;77.09
65836;SHT30;52595;51.608;7.216;2023-07-13T01:34:02;15.83;77.25
65836;SHT30;52595;51.608;7.216;2023-07-13T01:36:27;15.86;77.08
65836;SHT30;52595;51.608;7.216;2023-07-13T01:38:53;15.86;77.12
65836;SHT30;52595;51.608;7.216;2023-07-13T01:41:18;15.83;77.14
65836;SHT30;52595;51.608;7.216;2023-07-13T01:43:43;15.70;77.72
65836;SHT30;52595;51.608;7.216;2023-07-13T01:46:09;15.66;77.87
65836;SHT30;52595;51.608;7.216;2023-07-13T01:48:34;15.69;77.95
65836;SHT30;52595;51.608;7.216;2023-07-13T01:51:00;15.65;78.03
65836;SHT30;52595;51.608;7.216;2023-07-13T01:53:25;15.61;78.43
65836;SHT30;52595;51.608;7.216;2023-07-13T01:55:50;15.57;78.49
65836;SHT30;52595;51.608;7.216;2023-07-13T01:58:16;15.48;78.71
65836;SHT30;52595;51.608;7.216;2023-07-13T02:00:41;15.41;79.10
65836;SHT30;52595;51.608;7.216;2023-07-13T02:03:06;15.42;79.24
65836;SHT30;52595;51.608;7.216;2023-07-13T02:05:32;15.35;79.48
65836;SHT30;52595;51.608;7.216;2023-07-13T02:07:57;15.39;79.31
65836;SHT30;52595;51.608;7.216;2023-07-13T02:10:23;15.32;79.54
65836;SHT30;52595;51.608;7.216;2023-07-13T02:12:49;15.28;79.66
65836;SHT30;52595;51.608;7.216;2023-07-13T02:15:16;15.20;80.00
65836;SHT30;52595;51.608;7.216;2023-07-13T02:17:41;15.20;79.81
65836;SHT30;52595;51.608;7.216;2023-07-13T02:20:07;15.12;79.76
65836;SHT30;52595;51.608;7.216;2023-07-13T02:22:33;15.12;80.05
65836;SHT30;52595;51.608;7.216;2023-07-13T02:24:58;15.10;79.96
65836;SHT30;52595;51.608;7.216;2023-07-13T02:27:24;15.17;79.61
65836;SHT30;52595;51.608;7.216;2023-07-13T02:29:49;15.14;79.59
65836;SHT30;52595;51.608;7.216;2023-07-13T02:32:17;15.10;79.82
65836;SHT30;52595;51.608;7.216;2023-07-13T02:34:42;15.12;79.76
65836;SHT30;52595;51.608;7.216;2023-07-13T02:37:07;15.07;79.99
65836;SHT30;52595;51.608;7.216;2023-07-13T02:39:33;15.04;80.17
65836;SHT30;52595;51.608;7.216;2023-07-13T02:41:59;15.07;80.09
65836;SHT30;52595;51.608;7.216;2023-07-13T02:44:25;15.11;79.98
65836;SHT30;52595;51.608;7.216;2023-07-13T02:46:51;15.17;79.82
65836;SHT30;52595;51.608;7.216;2023-07-13T02:49:16;15.10;79.95
65836;SHT30;52595;51.608;7.216;2023-07-13T02:51:41;15.04;80.31
65836;SHT30;52595;51.608;7.216;2023-07-13T02:54:07;14.97;80.68
65836;SHT30;52595;51.608;7.216;2023-07-13T02:56:33;14.93;80.63
65836;SHT30;52595;51.608;7.216;2023-07-13T02:58:59;14.94;80.61
65836;SHT30;52595;51.608;7.216;2023-07-13T03:01:25;14.88;80.94
65836;SHT30;52595;51.608;7.216;2023-07-13T03:03:51;14.93;80.93
65836;SHT30;52595;51.608;7.216;2023-07-13T03:06:17;14.90;81.08
65836;SHT30;52595;51.608;7.216;2023-07-13T03:08:42;14.97;80.94
65836;SHT30;52595;51.608;7.216;2023-07-13T03:11:15;14.87;81.35
65836;SHT30;52595;51.608;7.216;2023-07-13T03:13:41;14.80;81.72
65836;SHT30;52595;51.608;7.216;2023-07-13T03:16:08;14.80;81.76
65836;SHT30;52595;51.608;7.216;2023-07-13T03:18:36;14.91;81.38
65836;SHT30;52595;51.608;7.216;2023-07-13T03:21:01;14.87;81.80
65836;SHT30;52595;51.608;7.216;2023-07-13T03:23:27;14.88;81.62
65836;SHT30;52595;51.608;7.216;2023-07-13T03:26:13;14.90;81.60
65836;SHT30;52595;51.608;7.216;2023-07-13T03:28:39;14.90;81.34
65836;SHT30;52595;51.608;7.216;2023-07-13T03:31:07;15.00;81.21
65836;SHT30;52595;51.608;7.216;2023-07-13T03:33:33;14.94;81.38
65836;SHT30;52595;51.608;7.216;2023-07-13T03:35:59;14.90;81.55
65836;SHT30;52595;51.608;7.216;2023-07-13T03:38:25;14.84;81.88
65836;SHT30;52595;51.608;7.216;2023-07-13T03:40:51;14.80;82.02
65836;SHT30;52595;51.608;7.216;2023-07-13T03:43:17;14.79;82.21
65836;SHT30;52595;51.608;7.216;2023-07-13T03:45:43;14.87;82.10
65836;SHT30;52595;51.608;7.216;2023-07-13T03:48:09;14.87;82.15
65836;SHT30;52595;51.608;7.216;2023-07-13T03:50:34;14.90;82.19
65836;SHT30;52595;51.608;7.216;2023-07-13T03:53:00;14.90;82.14
65836;SHT30;52595;51.608;7.216;2023-07-13T03:55:28;14.95;82.21
65836;SHT30;52595;51.608;7.216;2023-07-13T03:57:58;15.00;82.10
65836;SHT30;52595;51.608;7.216;2023-07-13T04:00:24;15.01;81.99
65836;SHT30;52595;51.608;7.216;2023-07-13T04:02:49;15.07;81.79
65836;SHT30;52595;51.608;7.216;2023-07-13T04:05:15;15.12;81.83
65836;SHT30;52595;51.608;7.216;2023-07-13T04:07:41;15.15;81.71
65836;SHT30;52595;51.608;7.216;2023-07-13T04:10:07;15.17;81.69
65836;SHT30;52595;51.608;7.216;2023-07-13T04:12:32;15.25;81.42
65836;SHT30;52595;51.608;7.216;2023-07-13T04:14:57;15.28;81.46
65836;SHT30;52595;51.608;7.216;2023-07-13T04:17:23;15.31;81.29
65836;SHT30;52595;51.608;7.216;2023-07-13T04:19:48;15.24;81.73
65836;SHT30;52595;51.608;7.216;2023-07-13T04:22:14;15.34;81.50
65836;SHT30;52595;51.608;7.216;2023-07-13T04:24:39;15.44;81.18
65836;SHT30;52595;51.608;7.216;2023-07-13T04:27:06;15.49;80.90
65836;SHT30;52595;51.608;7.216;2023-07-13T04:29:31;15.48;81.12
65836;SHT30;52595;51.608;7.216;2023-07-13T04:31:57;15.45;81.28
65836;SHT30;52595;51.608;7.216;2023-07-13T04:34:22;15.44;81.41
65836;SHT30;52595;51.608;7.216;2023-07-13T04:36:48;15.45;81.59
65836;SHT30;52595;51.608;7.216;2023-07-13T04:39:13;15.55;81.17
65836;SHT30;52595;51.608;7.216;2023-07-13T04:41:38;15.58;81.31
65836;SHT30;52595;51.608;7.216;2023-07-13T04:44:04;15.58;81.36
65836;SHT30;52595;51.608;7.216;2023-07-13T04:46:30;15.59;81.35
65836;SHT30;52595;51.608;7.216;2023-07-13T04:48:56;15.66;81.24
65836;SHT30;52595;51.608;7.216;2023-07-13T04:51:23;15.70;81.46
65836;SHT30;52595;51.608;7.216;2023-07-13T04:53:48;15.83;81.23
65836;SHT30;52595;51.608;7.216;2023-07-13T04:56:13;15.88;81.04
65836;SHT30;52595;51.608;7.216;2023-07-13T04:58:39;15.83;81.10
65836;SHT30;52595;51.608;7.216;2023-07-13T05:01:06;15.90;81.13
65836;SHT30;52595;51.608;7.216;2023-07-13T05:03:32;15.90;81.14
65836;SHT30;52595;51.608;7.216;2023-07-13T05:06:03;15.99;81.15
65836;SHT30;52595;51.608;7.216;2023-07-13T05:08:29;15.95;81.17
65836;SHT30;52595;51.608;7.216;2023-07-13T05:10:54;15.95;81.21
65836;SHT30;52595;51.608;7.216;2023-07-13T05:13:20;15.96;81.40
65836;SHT30;52595;51.608;7.216;2023-07-13T05:15:48;15.95;81.39
65836;SHT30;52595;51.608;7.216;2023-07-13T05:18:20;15.99;81.45
65836;SHT30;52595;51.608;7.216;2023-07-13T05:20:56;16.00;81.45
65836;SHT30;52595;51.608;7.216;2023-07-13T05:23:22;15.99;81.55
65836;SHT30;52595;51.608;7.216;2023-07-13T05:25:47;16.02;81.78
65836;SHT30;52595;51.608;7.216;2023-07-13T05:28:13;15.95;81.74
65836;SHT30;52595;51.608;7.216;2023-07-13T05:30:38;15.96;82.20
65836;SHT30;52595;51.608;7.216;2023-07-13T05:33:04;15.90;81.89
65836;SHT30;52595;51.608;7.216;2023-07-13T05:35:29;15.89;82.38
65836;SHT30;52595;51.608;7.216;2023-07-13T05:37:54;15.93;82.54
65836;SHT30;52595;51.608;7.216;2023-07-13T05:40:20;15.96;82.31
65836;SHT30;52595;51.608;7.216;2023-07-13T05:42:48;16.06;81.96
65836;SHT30;52595;51.608;7.216;2023-07-13T05:45:16;16.05;82.25
65836;SHT30;52595;51.608;7.216;2023-07-13T05:47:41;16.05;82.08
65836;SHT30;52595;51.608;7.216;2023-07-13T05:50:07;16.10;82.15
65836;SHT30;52595;51.608;7.216;2023-07-13T05:52:33;16.20;82.34
65836;SHT30;52595;51.608;7.216;2023-07-13T05:54:58;16.23;82.28
65836;SHT30;52595;51.608;7.216;2023-07-13T05:57:23;16.37;81.97
65836;SHT30;52595;51.608;7.216;2023-07-13T05:59:49;16.39;81.99
65836;SHT30;52595;51.608;7.216;2023-07-13T06:02:14;16.44;81.98
65836;SHT30;52595;51.608;7.216;2023-07-13T06:04:40;16.44;82.26
65836;SHT30;52595;51.608;7.216;2023-07-13T06:07:05;16.64;81.78
65836;SHT30;52595;51.608;7.216;2023-07-13T06:09:30;16.73;81.55
65836;SHT30;52595;51.608;7.216;2023-07-13T06:11:56;16.89;81.42
65836;SHT30;52595;51.608;7.216;2023-07-13T06:14:21;16.94;80.78
65836;SHT30;52595;51.608;7.216;2023-07-13T06:16:47;16.81;81.03
65836;SHT30;52595;51.608;7.216;2023-07-13T06:19:12;16.83;81.37
65836;SHT30;52595;51.608;7.216;2023-07-13T06:21:37;16.92;81.31
65836;SHT30;52595;51.608;7.216;2023-07-13T06:24:03;17.07;80.86
65836;SHT30;52595;51.608;7.216;2023-07-13T06:26:29;16.89;80.98
65836;SHT30;52595;51.608;7.216;2023-07-13T06:28:54;17.08;80.88
65836;SHT30;52595;51.608;7.216;2023-07-13T06:31:20;17.04;81.13
65836;SHT30;52595;51.608;7.216;2023-07-13T06:33:45;17.04;81.02
65836;SHT30;52595;51.608;7.216;2023-07-13T06:36:11;17.27;80.42
65836;SHT30;52595;51.608;7.216;2023-07-13T06:38:37;17.27;80.15
65836;SHT30;52595;51.608;7.216;2023-07-13T06:41:04;17.08;80.58
65836;SHT30;52595;51.608;7.216;2023-07-13T06:43:29;16.94;80.79
65836;SHT30;52595;51.608;7.216;2023-07-13T06:45:57;17.08;80.77
65836;SHT30;52595;51.608;7.216;2023-07-13T06:48:23;17.27;80.60
65836;SHT30;52595;51.608;7.216;2023-07-13T06:50:49;17.10;80.74
65836;SHT30;52595;51.608;7.216;2023-07-13T06:53:15;17.12;81.03
65836;SHT30;52595;51.608;7.216;2023-07-13T06:55:43;17.04;80.82
65836;SHT30;52595;51.608;7.216;2023-07-13T06:58:10;17.14;81.12
65836;SHT30;52595;51.608;7.216;2023-07-13T07:00:35;17.18;81.31
65836;SHT30;52595;51.608;7.216;2023-07-13T07:03:00;17.34;81.11
65836;SHT30;52595;51.608;7.216;2023-07-13T07:05:26;17.18;80.93
65836;SHT30;52595;51.608;7.216;2023-07-13T07:07:53;17.22;81.02
65836;SHT30;52595;51.608;7.216;2023-07-13T07:10:19;17.43;80.72
65836;SHT30;52595;51.608;7.216;2023-07-13T07:12:45;17.58;80.67
65836;SHT30;52595;51.608;7.216;2023-07-13T07:15:11;17.69;80.25
65836;SHT30;52595;51.608;7.216;2023-07-13T07:17:37;17.75;79.58
65836;SHT30;52595;51.608;7.216;2023-07-13T07:20:03;17.63;79.89
65836;SHT30;52595;51.608;7.216;2023-07-13T07:22:29;17.78;80.12
65836;SHT30;52595;51.608;7.216;2023-07-13T07:24:55;17.99;79.76
65836;SHT30;52595;51.608;7.216;2023-07-13T07:27:21;17.96;79.17
65836;SHT30;52595;51.608;7.216;2023-07-13T07:29:46;18.06;78.92
65836;SHT30;52595;51.608;7.216;2023-07-13T07:32:11;18.06;78.92
65836;SHT30;52595;51.608;7.216;2023-07-13T07:34:37;18.10;78.84
65836;SHT30;52595;51.608;7.216;2023-07-13T07:37:03;18.33;78.64
65836;SHT30;52595;51.608;7.216;2023-07-13T07:39:28;18.50;77.89
65836;SHT30;52595;51.608;7.216;2023-07-13T07:41:57;18.61;77.69
65836;SHT30;52595;51.608;7.216;2023-07-13T07:44:22;18.53;77.60
65836;SHT30;52595;51.608;7.216;2023-07-13T07:46:48;18.50;77.60
65836;SHT30;52595;51.608;7.216;2023-07-13T07:49:14;18.57;77.54
65836;SHT30;52595;51.608;7.216;2023-07-13T07:51:39;18.75;77.31
65836;SHT30;52595;51.608;7.216;2023-07-13T07:54:05;18.57;77.38
65836;SHT30;52595;51.608;7.216;2023-07-13T07:56:31;18.55;77.27
65836;SHT30;52595;51.608;7.216;2023-07-13T07:58:57;18.60;77.30
65836;SHT30;52595;51.608;7.216;2023-07-13T08:01:23;18.54;77.43
65836;SHT30;52595;51.608;7.216;2023-07-13T08:03:48;18.55;77.60
65836;SHT30;52595;51.608;7.216;2023-07-13T08:06:14;18.65;76.95
65836;SHT30;52595;51.608;7.216;2023-07-13T08:08:39;18.75;76.82
65836;SHT30;52595;51.608;7.216;2023-07-13T08:11:06;18.74;76.87
65836;SHT30;52595;51.608;7.216;2023-07-13T08:13:32;18.99;76.22
65836;SHT30;52595;51.608;7.216;2023-07-13T08:15:58;19.23;75.59
65836;SHT30;52595;51.608;7.216;2023-07-13T08:18:24;19.59;74.92
65836;SHT30;52595;51.608;7.216;2023-07-13T08:20:49;19.90;74.27
65836;SHT30;52595;51.608;7.216;2023-07-13T08:23:15;19.89;73.88
65836;SHT30;52595;51.608;7.216;2023-07-13T08:25:42;19.73;74.27
65836;SHT30;52595;51.608;7.216;2023-07-13T08:28:07;19.96;73.75
65836;SHT30;52595;51.608;7.216;2023-07-13T08:30:33;20.03;73.80
65836;SHT30;52595;51.608;7.216;2023-07-13T08:32:59;20.06;74.11
65836;SHT30;52595;51.608;7.216;2023-07-13T08:35:24;20.00;72.73
65836;SHT30;52595;51.608;7.216;2023-07-13T08:37:51;20.30;72.92
65836;SHT30;52595;51.608;7.216;2023-07-13T08:40:18;20.06;73.65
65836;SHT30;52595;51.608;7.216;2023-07-13T08:42:46;20.38;72.65
65836;SHT30;52595;51.608;7.216;2023-07-13T08:48:21;20.88;71.98
65836;SHT30;52595;51.608;7.216;2023-07-13T08:50:58;20.43;70.97
65836;SHT30;52595;51.608;7.216;2023-07-13T08:53:28;20.13;71.09
65836;SHT30;52595;51.608;7.216;2023-07-13T08:55:58;19.67;72.98
65836;SHT30;52595;51.608;7.216;2023-07-13T08:58:25;19.94;72.22
65836;SHT30;52595;51.608;7.216;2023-07-13T09:04:11;19.66;73.62
65836;SHT30;52595;51.608;7.216;2023-07-13T09:09:32;20.30;72.29
65836;SHT30;52595;51.608;7.216;2023-07-13T09:12:12;19.69;72.53
65836;SHT30;52595;51.608;7.216;2023-07-13T09:14:42;19.52;73.13
65836;SHT30;52595;51.608;7.216;2023-07-13T09:17:29;20.03;72.92
65836;SHT30;52595;51.608;7.216;2023-07-13T09:20:00;20.38;70.94
65836;SHT30;52595;51.608;7.216;2023-07-13T09:22:32;20.16;71.89
65836;SHT30;52595;51.608;7.216;2023-07-13T09:25:10;20.16;71.38
65836;SHT30;52595;51.608;7.216;2023-07-13T09:27:45;19.74;72.33
65836;SHT30;52595;51.608;7.216;2023-07-13T09:32:47;20.52;71.47
65836;SHT30;52595;51.608;7.216;2023-07-13T09:35:17;21.30;69.74
65836;SHT30;52595;51.608;7.216;2023-07-13T09:37:45;21.43;69.53
65836;SHT30;52595;51.608;7.216;2023-07-13T09:40:24;21.63;68.96
65836;SHT30;52595;51.608;7.216;2023-07-13T09:42:55;21.33;68.96
65836;SHT30;52595;51.608;7.216;2023-07-13T09:45:29;20.84;70.81
65836;SHT30;52595;51.608;7.216;2023-07-13T09:48:12;20.98;69.83
65836;SHT30;52595;51.608;7.216;2023-07-13T09:50:39;21.28;70.15
65836;SHT30;52595;51.608;7.216;2023-07-13T09:53:14;21.45;68.07
65836;SHT30;52595;51.608;7.216;2023-07-13T09:55:42;21.00;68.88
65836;SHT30;52595;51.608;7.216;2023-07-13T09:58:17;20.94;69.99
65836;SHT30;52595;51.608;7.216;2023-07-13T10:00:44;21.16;69.59
65836;SHT30;52595;51.608;7.216;2023-07-13T10:03:24;21.02;69.50
65836;SHT30;52595;51.608;7.216;2023-07-13T10:05:51;20.94;70.04
65836;SHT30;52595;51.608;7.216;2023-07-13T10:08:26;20.45;71.13
65836;SHT30;52595;51.608;7.216;2023-07-13T10:11:18;20.54;71.04
65836;SHT30;52595;51.608;7.216;2023-07-13T10:13:57;21.15;69.15
65836;SHT30;52595;51.608;7.216;2023-07-13T10:16:27;21.64;68.40
65836;SHT30;52595;51.608;7.216;2023-07-13T10:18:59;21.47;69.31
65836;SHT30;52595;51.608;7.216;2023-07-13T10:21:32;20.58;68.92
65836;SHT30;52595;51.608;7.216;2023-07-13T10:24:24;20.10;69.77
65836;SHT30;52595;51.608;7.216;2023-07-13T10:27:11;20.10;70.63
65836;SHT30;52595;51.608;7.216;2023-07-13T10:29:42;19.73;73.68
65836;SHT30;52595;51.608;7.216;2023-07-13T10:32:11;19.43;75.15
65836;SHT30;52595;51.608;7.216;2023-07-13T10:34:37;19.25;75.83
65836;SHT30;52595;51.608;7.216;2023-07-13T10:37:05;19.18;76.11
65836;SHT30;52595;51.608;7.216;2023-07-13T10:39:32;19.49;75.87
65836;SHT30;52595;51.608;7.216;2023-07-13T10:42:05;19.84;75.18
65836;SHT30;52595;51.608;7.216;2023-07-13T10:44:33;20.00;74.48
65836;SHT30;52595;51.608;7.216;2023-07-13T10:47:07;19.86;72.82
65836;SHT30;52595;51.608;7.216;2023-07-13T10:49:34;20.16;72.86
65836;SHT30;52595;51.608;7.216;2023-07-13T10:52:02;20.64;71.10
65836;SHT30;52595;51.608;7.216;2023-07-13T10:54:32;21.22;69.54
65836;SHT30;52595;51.608;7.216;2023-07-13T10:57:20;21.66;68.52
65836;SHT30;52595;51.608;7.216;2023-07-13T11:00:16;21.43;68.08
65836;SHT30;52595;51.608;7.216;2023-07-13T11:02:42;21.40;67.62
65836;SHT30;52595;51.608;7.216;2023-07-13T11:05:27;21.53;66.50
65836;SHT30;52595;51.608;7.216;2023-07-13T11:08:14;22.10;66.67
65836;SHT30;52595;51.608;7.216;2023-07-13T11:10:53;22.40;64.86
65836;SHT30;52595;51.608;7.216;2023-07-13T11:16:57;22.56;64.72
65836;SHT30;52595;51.608;7.216;2023-07-13T11:21:29;22.79;63.55
65836;SHT30;52595;51.608;7.216;2023-07-13T11:24:17;22.96;63.54
65836;SHT30;52595;51.608;7.216;2023-07-13T11:29:33;24.71;59.61
65836;SHT30;52595;51.608;7.216;2023-07-13T11:32:00;23.73;61.17
65836;SHT30;52595;51.608;7.216;2023-07-13T11:34:34;23.81;60.96
65836;SHT30;52595;51.608;7.216;2023-07-13T11:37:01;23.60;60.51
65836;SHT30;52595;51.608;7.216;2023-07-13T11:39:47;24.22;59.15
65836;SHT30;52595;51.608;7.216;2023-07-13T11:42:15;24.17;57.95
65836;SHT30;52595;51.608;7.216;2023-07-13T11:44:43;22.91;61.00
65836;SHT30;52595;51.608;7.216;2023-07-13T11:47:11;22.59;62.03
65836;SHT30;52595;51.608;7.216;2023-07-13T11:49:48;22.38;62.92
65836;SHT30;52595;51.608;7.216;2023-07-13T11:52:17;22.18;62.98
65836;SHT30;52595;51.608;7.216;2023-07-13T11:54:55;23.15;61.03
65836;SHT30;52595;51.608;7.216;2023-07-13T11:57:29;24.03;58.66
65836;SHT30;52595;51.608;7.216;2023-07-13T12:00:00;22.66;61.50
65836;SHT30;52595;51.608;7.216;2023-07-13T12:02:34;22.56;61.43
65836;SHT30;52595;51.608;7.216;2023-07-13T12:05:02;23.33;59.81
65836;SHT30;52595;51.608;7.216;2023-07-13T12:07:31;24.56;56.45
65836;SHT30;52595;51.608;7.216;2023-07-13T12:12:29;24.44;56.68
65836;SHT30;52595;51.608;7.216;2023-07-13T12:14:55;24.79;55.21
65836;SHT30;52595;51.608;7.216;2023-07-13T12:17:22;23.67;56.43
65836;SHT30;52595;51.608;7.216;2023-07-13T12:19:50;23.66;57.44
65836;SHT30;52595;51.608;7.216;2023-07-13T12:22:17;24.86;55.08
65836;SHT30;52595;51.608;7.216;2023-07-13T12:24:44;24.59;55.32
65836;SHT30;52595;51.608;7.216;2023-07-13T12:27:22;23.63;55.36
65836;SHT30;52595;51.608;7.216;2023-07-13T12:29:50;23.34;56.80
65836;SHT30;52595;51.608;7.216;2023-07-13T12:32:18;22.92;57.74
65836;SHT30;52595;51.608;7.216;2023-07-13T12:35:12;23.33;57.46
65836;SHT30;52595;51.608;7.216;2023-07-13T12:37:41;24.01;55.06
65836;SHT30;52595;51.608;7.216;2023-07-13T12:40:14;24.34;55.08
65836;SHT30;52595;51.608;7.216;2023-07-13T12:42:40;24.80;54.38
65836;SHT30;52595;51.608;7.216;2023-07-13T12:45:20;25.90;53.23
65836;SHT30;52595;51.608;7.216;2023-07-13T12:47:49;26.32;51.53
65836;SHT30;52595;51.608;7.216;2023-07-13T12:50:18;25.78;51.67
65836;SHT30;52595;51.608;7.216;2023-07-13T12:52:50;25.29;52.98
65836;SHT30;52595;51.608;7.216;2023-07-13T12:55:18;25.26;53.15
65836;SHT30;52595;51.608;7.216;2023-07-13T12:57:57;24.73;53.60
65836;SHT30;52595;51.608;7.216;2023-07-13T13:00:37;24.69;54.07
65836;SHT30;52595;51.608;7.216;2023-07-13T13:05:44;24.65;53.37
65836;SHT30;52595;51.608;7.216;2023-07-13T13:08:14;24.62;53.16
65836;SHT30;52595;51.608;7.216;2023-07-13T13:10:39;24.03;54.38
65836;SHT30;52595;51.608;7.216;2023-07-13T13:13:04;23.42;55.37
65836;SHT30;52595;51.608;7.216;2023-07-13T13:15:30;22.38;61.71
65836;SHT30;52595;51.608;7.216;2023-07-13T13:17:56;21.25;67.44
65836;SHT30;52595;51.608;7.216;2023-07-13T13:20:24;19.80;72.99
65836;SHT30;52595;51.608;7.216;2023-07-13T13:22:51;17.97;84.40
65836;SHT30;52595;51.608;7.216;2023-07-13T13:25:18;17.05;89.55
65836;SHT30;52595;51.608;7.216;2023-07-13T13:27:44;16.30;92.61
65836;SHT30;52595;51.608;7.216;2023-07-13T13:32:39;15.11;97.66
65836;SHT30;52595;51.608;7.216;2023-07-13T13:35:05;15.03;99.61
65836;SHT30;52595;51.608;7.216;2023-07-13T13:37:31;14.91;99.26
65836;SHT30;52595;51.608;7.216;2023-07-13T13:39:57;14.90;99.23
65836;SHT30;52595;51.608;7.216;2023-07-13T13:42:22;14.93;99.03
65836;SHT30;52595;51.608;7.216;2023-07-13T13:44:50;15.04;99.99
65836;SHT30;52595;51.608;7.216;2023-07-13T13:47:41;15.11;99.99
65836;SHT30;52595;51.608;7.216;2023-07-13T13:52:37;15.35;99.99
65836;SHT30;52595;51.608;7.216;2023-07-13T13:55:11;15.44;99.99
65836;SHT30;52595;51.608;7.216;2023-07-13T13:57:37;15.79;99.99
65836;SHT30;52595;51.608;7.216;2023-07-13T14:00:02;15.78;99.99
65836;SHT30;52595;51.608;7.216;2023-07-13T14:02:29;15.92;99.99
65836;SHT30;52595;51.608;7.216;2023-07-13T14:05:01;15.82;99.49
65836;SHT30;52595;51.608;7.216;2023-07-13T14:07:27;15.85;99.47
65836;SHT30;52595;51.608;7.216;2023-07-13T14:09:57;15.96;99.54
65836;SHT30;52595;51.608;7.216;2023-07-13T14:12:23;15.99;99.04
65836;SHT30;52595;51.608;7.216;2023-07-13T14:14:51;16.00;99.64
65836;SHT30;52595;51.608;7.216;2023-07-13T14:17:25;16.08;99.18
65836;SHT30;52595;51.608;7.216;2023-07-13T14:19:52;16.05;98.24
65836;SHT30;52595;51.608;7.216;2023-07-13T14:22:25;16.19;99.99
65836;SHT30;52595;51.608;7.216;2023-07-13T14:24:54;16.44;99.99
65836;SHT30;52595;51.608;7.216;2023-07-13T14:27:20;16.46;99.70
65836;SHT30;52595;51.608;7.216;2023-07-13T14:29:46;16.14;97.82
65836;SHT30;52595;51.608;7.216;2023-07-13T14:32:12;16.19;99.84
65836;SHT30;52595;51.608;7.216;2023-07-13T14:34:38;16.14;98.93
65836;SHT30;52595;51.608;7.216;2023-07-13T14:37:04;15.96;97.09
65836;SHT30;52595;51.608;7.216;2023-07-13T14:39:31;16.05;98.81
65836;SHT30;52595;51.608;7.216;2023-07-13T14:41:57;16.20;99.35
65836;SHT30;52595;51.608;7.216;2023-07-13T14:44:30;16.56;99.98
65836;SHT30;52595;51.608;7.216;2023-07-13T14:47:02;16.78;99.93
65836;SHT30;52595;51.608;7.216;2023-07-13T14:49:40;16.97;97.81
65836;SHT30;52595;51.608;7.216;2023-07-13T14:52:16;17.31;97.55
65836;SHT30;52595;51.608;7.216;2023-07-13T14:54:42;17.40;94.81
65836;SHT30;52595;51.608;7.216;2023-07-13T14:57:10;17.63;94.66
65836;SHT30;52595;51.608;7.216;2023-07-13T14:59:36;17.75;95.02
65836;SHT30;52595;51.608;7.216;2023-07-13T15:02:01;17.96;93.78
65836;SHT30;52595;51.608;7.216;2023-07-13T15:04:27;18.09;96.37
65836;SHT30;52595;51.608;7.216;2023-07-13T15:06:54;18.30;92.40
65836;SHT30;52595;51.608;7.216;2023-07-13T15:09:20;19.09;92.74
65836;SHT30;52595;51.608;7.216;2023-07-13T15:11:46;19.83;89.61
65836;SHT30;52595;51.608;7.216;2023-07-13T15:14:11;20.96;90.12
65836;SHT30;52595;51.608;7.216;2023-07-13T15:16:36;21.33;84.57
65836;SHT30;52595;51.608;7.216;2023-07-13T15:19:02;21.60;86.22
65836;SHT30;52595;51.608;7.216;2023-07-13T15:21:28;21.96;81.09
65836;SHT30;52595;51.608;7.216;2023-07-13T15:24:00;22.40;72.93
65836;SHT30;52595;51.608;7.216;2023-07-13T15:26:26;22.47;71.05
65836;SHT30;52595;51.608;7.216;2023-07-13T15:28:51;22.22;73.57
65836;SHT30;52595;51.608;7.216;2023-07-13T15:31:25;21.76;71.62
65836;SHT30;52595;51.608;7.216;2023-07-13T15:33:57;21.77;72.93
65836;SHT30;52595;51.608;7.216;2023-07-13T15:36:24;21.69;73.37
65836;SHT30;52595;51.608;7.216;2023-07-13T15:38:54;21.26;73.44
65836;SHT30;52595;51.608;7.216;2023-07-13T15:41:25;20.89;75.09
65836;SHT30;52595;51.608;7.216;2023-07-13T15:43:54;20.71;77.34
65836;SHT30;52595;51.608;7.216;2023-07-13T15:46:21;20.47;78.01
65836;SHT30;52595;51.608;7.216;2023-07-13T15:48:51;20.35;79.96
65836;SHT30;52595;51.608;7.216;2023-07-13T15:51:28;20.14;81.88
65836;SHT30;52595;51.608;7.216;2023-07-13T15:53:56;20.06;81.73
65836;SHT30;52595;51.608;7.216;2023-07-13T15:56:28;19.98;81.75
65836;SHT30;52595;51.608;7.216;2023-07-13T15:58:55;19.74;81.57
65836;SHT30;52595;51.608;7.216;2023-07-13T16:01:22;19.63;83.39
65836;SHT30;52595;51.608;7.216;2023-07-13T16:03:47;19.52;81.49
65836;SHT30;52595;51.608;7.216;2023-07-13T16:06:22;19.43;82.47
65836;SHT30;52595;51.608;7.216;2023-07-13T16:08:49;19.26;82.49
65836;SHT30;52595;51.608;7.216;2023-07-13T16:11:24;18.89;82.31